sensor_id;sensor_type;location;lat;lon;timestamp;P1;durP1;ratioP1;P2;durP2;ratioP2
44120;SDS011;29783;52.504;13.478;2022-10-22T00:02:35;25.33;;;20.60;;
44120;SDS011;29783;52.504;13.478;2022-10-22T00:05:11;26.08;;;21.90;;
44120;SDS011;29783;52.504;13.478;2022-10-22T00:14:18;26.77;;;20.85;;
44120;SDS011;29783;52.504;13.478;2022-10-22T00:16:43;27.08;;;19.60;;
44120;SDS011;29783;52.504;13.478;2022-10-22T00:19:09;27.45;;;20.90;;
44120;SDS011;29783;52.504;13.478;2022-10-22T00:21:37;27.70;;;19.38;;
44120;SDS011;29783;52.504;13.478;2022-10-22T00:24:03;31.40;;;21.73;;
44120;SDS011;29783;52.504;13.478;2022-10-22T00:26:29;21.92;;;18.23;;
44120;SDS011;29783;52.504;13.478;2022-10-22T00:28:54;23.08;;;19.50;;
44120;SDS011;29783;52.504;13.478;2022-10-22T00:31:20;31.17;;;19.83;;
44120;SDS011;29783;52.504;13.478;2022-10-22T00:33:46;22.15;;;18.60;;
44120;SDS011;29783;52.504;13.478;2022-10-22T00:36:12;31.40;;;19.27;;
44120;SDS011;29783;52.504;13.478;2022-10-22T00:38:39;24.95;;;19.25;;
44120;SDS011;29783;52.504;13.478;2022-10-22T00:41:05;20.58;;;18.40;;
44120;SDS011;29783;52.504;13.478;2022-10-22T00:43:31;23.73;;;18.23;;
44120;SDS011;29783;52.504;13.478;2022-10-22T00:45:57;24.90;;;18.20;;
44120;SDS011;29783;52.504;13.478;2022-10-22T00:48:26;20.98;;;18.30;;
44120;SDS011;29783;52.504;13.478;2022-10-22T00:50:59;28.25;;;19.13;;
44120;SDS011;29783;52.504;13.478;2022-10-22T00:53:29;20.40;;;17.90;;
44120;SDS011;29783;52.504;13.478;2022-10-22T00:55:58;20.98;;;18.50;;
44120;SDS011;29783;52.504;13.478;2022-10-22T00:58:25;23.48;;;18.50;;
44120;SDS011;29783;52.504;13.478;2022-10-22T01:00:54;25.42;;;17.83;;
44120;SDS011;29783;52.504;13.478;2022-10-22T01:03:21;25.42;;;18.08;;
44120;SDS011;29783;52.504;13.478;2022-10-22T01:05:53;27.10;;;18.83;;
44120;SDS011;29783;52.504;13.478;2022-10-22T01:11:05;27.08;;;19.75;;
44120;SDS011;29783;52.504;13.478;2022-10-22T01:16:34;36.33;;;20.90;;
44120;SDS011;29783;52.504;13.478;2022-10-22T01:19:27;22.88;;;20.10;;
44120;SDS011;29783;52.504;13.478;2022-10-22T01:22:21;23.05;;;20.15;;
44120;SDS011;29783;52.504;13.478;2022-10-22T01:24:57;32.15;;;21.13;;
44120;SDS011;29783;52.504;13.478;2022-10-22T01:30:16;28.30;;;19.63;;
44120;SDS011;29783;52.504;13.478;2022-10-22T01:32:50;24.92;;;19.08;;
44120;SDS011;29783;52.504;13.478;2022-10-22T01:35:27;23.63;;;18.38;;
44120;SDS011;29783;52.504;13.478;2022-10-22T01:37:57;26.35;;;18.40;;
44120;SDS011;29783;52.504;13.478;2022-10-22T01:40:26;28.65;;;19.50;;
44120;SDS011;29783;52.504;13.478;2022-10-22T01:43:00;26.75;;;19.10;;
44120;SDS011;29783;52.504;13.478;2022-10-22T01:45:28;23.45;;;19.55;;
44120;SDS011;29783;52.504;13.478;2022-10-22T01:47:57;23.17;;;19.55;;
44120;SDS011;29783;52.504;13.478;2022-10-22T01:53:10;26.38;;;20.10;;
44120;SDS011;29783;52.504;13.478;2022-10-22T01:55:57;26.70;;;19.60;;
44120;SDS011;29783;52.504;13.478;2022-10-22T01:58:38;29.38;;;19.13;;
44120;SDS011;29783;52.504;13.478;2022-10-22T02:06:49;26.13;;;19.65;;
44120;SDS011;29783;52.504;13.478;2022-10-22T02:09:19;30.35;;;20.75;;
44120;SDS011;29783;52.504;13.478;2022-10-22T02:11:46;26.80;;;19.63;;
44120;SDS011;29783;52.504;13.478;2022-10-22T02:14:14;25.45;;;18.42;;
44120;SDS011;29783;52.504;13.478;2022-10-22T02:16:42;23.60;;;19.80;;
44120;SDS011;29783;52.504;13.478;2022-10-22T02:19:13;27.33;;;19.90;;
44120;SDS011;29783;52.504;13.478;2022-10-22T02:21:47;24.90;;;20.13;;
44120;SDS011;29783;52.504;13.478;2022-10-22T02:24:13;25.02;;;19.30;;
44120;SDS011;29783;52.504;13.478;2022-10-22T02:26:46;26.35;;;21.08;;
44120;SDS011;29783;52.504;13.478;2022-10-22T02:32:15;22.45;;;19.27;;
44120;SDS011;29783;52.504;13.478;2022-10-22T02:34:45;24.60;;;19.05;;
44120;SDS011;29783;52.504;13.478;2022-10-22T02:37:12;27.17;;;19.13;;
44120;SDS011;29783;52.504;13.478;2022-10-22T02:39:38;26.27;;;18.65;;
44120;SDS011;29783;52.504;13.478;2022-10-22T02:42:04;21.42;;;18.17;;
44120;SDS011;29783;52.504;13.478;2022-10-22T02:44:30;24.85;;;19.33;;
44120;SDS011;29783;52.504;13.478;2022-10-22T02:46:56;26.33;;;19.40;;
44120;SDS011;29783;52.504;13.478;2022-10-22T02:49:23;26.00;;;20.02;;
44120;SDS011;29783;52.504;13.478;2022-10-22T02:51:48;26.17;;;20.85;;
44120;SDS011;29783;52.504;13.478;2022-10-22T02:54:14;23.63;;;19.17;;
44120;SDS011;29783;52.504;13.478;2022-10-22T02:56:40;30.83;;;20.20;;
44120;SDS011;29783;52.504;13.478;2022-10-22T02:59:06;29.45;;;21.52;;
44120;SDS011;29783;52.504;13.478;2022-10-22T03:01:31;26.13;;;21.70;;
44120;SDS011;29783;52.504;13.478;2022-10-22T03:03:57;26.10;;;19.92;;
44120;SDS011;29783;52.504;13.478;2022-10-22T03:06:23;28.98;;;20.75;;
44120;SDS011;29783;52.504;13.478;2022-10-22T03:08:49;29.15;;;21.90;;
44120;SDS011;29783;52.504;13.478;2022-10-22T03:11:14;33.35;;;22.27;;
44120;SDS011;29783;52.504;13.478;2022-10-22T03:13:40;27.80;;;22.08;;
44120;SDS011;29783;52.504;13.478;2022-10-22T03:16:06;30.92;;;22.63;;
44120;SDS011;29783;52.504;13.478;2022-10-22T03:18:32;28.60;;;20.73;;
44120;SDS011;29783;52.504;13.478;2022-10-22T03:21:03;30.70;;;22.70;;
44120;SDS011;29783;52.504;13.478;2022-10-22T03:23:30;30.40;;;21.10;;
44120;SDS011;29783;52.504;13.478;2022-10-22T03:25:56;26.67;;;21.05;;
44120;SDS011;29783;52.504;13.478;2022-10-22T03:28:23;26.15;;;20.80;;
44120;SDS011;29783;52.504;13.478;2022-10-22T03:30:50;30.90;;;21.20;;
44120;SDS011;29783;52.504;13.478;2022-10-22T03:33:16;23.42;;;20.42;;
44120;SDS011;29783;52.504;13.478;2022-10-22T03:35:43;28.05;;;21.67;;
44120;SDS011;29783;52.504;13.478;2022-10-22T03:38:11;31.48;;;20.48;;
44120;SDS011;29783;52.504;13.478;2022-10-22T03:40:37;23.65;;;19.60;;
44120;SDS011;29783;52.504;13.478;2022-10-22T03:43:03;27.60;;;19.50;;
44120;SDS011;29783;52.504;13.478;2022-10-22T03:45:29;24.48;;;18.13;;
44120;SDS011;29783;52.504;13.478;2022-10-22T03:47:55;28.92;;;18.90;;
44120;SDS011;29783;52.504;13.478;2022-10-22T03:50:21;24.55;;;19.83;;
44120;SDS011;29783;52.504;13.478;2022-10-22T03:52:47;27.52;;;20.13;;
44120;SDS011;29783;52.504;13.478;2022-10-22T03:55:13;23.98;;;17.65;;
44120;SDS011;29783;52.504;13.478;2022-10-22T03:57:39;22.73;;;18.60;;
44120;SDS011;29783;52.504;13.478;2022-10-22T04:00:05;24.88;;;17.80;;
44120;SDS011;29783;52.504;13.478;2022-10-22T04:02:31;25.02;;;17.63;;
44120;SDS011;29783;52.504;13.478;2022-10-22T04:04:57;21.80;;;17.05;;
44120;SDS011;29783;52.504;13.478;2022-10-22T04:07:22;22.65;;;17.80;;
44120;SDS011;29783;52.504;13.478;2022-10-22T04:09:48;22.35;;;17.23;;
44120;SDS011;29783;52.504;13.478;2022-10-22T04:12:14;29.00;;;17.83;;
44120;SDS011;29783;52.504;13.478;2022-10-22T04:14:39;27.77;;;18.30;;
44120;SDS011;29783;52.504;13.478;2022-10-22T04:17:05;26.17;;;17.42;;
44120;SDS011;29783;52.504;13.478;2022-10-22T04:19:31;22.98;;;18.30;;
44120;SDS011;29783;52.504;13.478;2022-10-22T04:21:57;29.38;;;20.15;;
44120;SDS011;29783;52.504;13.478;2022-10-22T04:24:23;26.45;;;19.25;;
44120;SDS011;29783;52.504;13.478;2022-10-22T04:26:49;28.55;;;20.90;;
44120;SDS011;29783;52.504;13.478;2022-10-22T04:29:17;28.92;;;22.23;;
44120;SDS011;29783;52.504;13.478;2022-10-22T04:31:43;37.00;;;23.63;;
44120;SDS011;29783;52.504;13.478;2022-10-22T04:34:08;32.90;;;25.42;;
44120;SDS011;29783;52.504;13.478;2022-10-22T04:36:34;33.78;;;26.85;;
44120;SDS011;29783;52.504;13.478;2022-10-22T04:39:00;30.70;;;24.95;;
44120;SDS011;29783;52.504;13.478;2022-10-22T04:41:28;32.30;;;21.45;;
44120;SDS011;29783;52.504;13.478;2022-10-22T04:43:56;30.77;;;23.65;;
44120;SDS011;29783;52.504;13.478;2022-10-22T04:46:23;27.35;;;20.85;;
44120;SDS011;29783;52.504;13.478;2022-10-22T04:48:50;27.25;;;21.05;;
44120;SDS011;29783;52.504;13.478;2022-10-22T04:51:17;23.40;;;18.48;;
44120;SDS011;29783;52.504;13.478;2022-10-22T04:53:45;28.30;;;20.33;;
44120;SDS011;29783;52.504;13.478;2022-10-22T04:56:15;28.13;;;19.40;;
44120;SDS011;29783;52.504;13.478;2022-10-22T04:58:49;27.33;;;18.60;;
44120;SDS011;29783;52.504;13.478;2022-10-22T05:01:19;30.33;;;19.70;;
44120;SDS011;29783;52.504;13.478;2022-10-22T05:06:20;27.45;;;18.40;;
44120;SDS011;29783;52.504;13.478;2022-10-22T05:08:47;26.40;;;18.60;;
44120;SDS011;29783;52.504;13.478;2022-10-22T05:11:17;21.73;;;18.77;;
44120;SDS011;29783;52.504;13.478;2022-10-22T05:13:44;23.83;;;18.25;;
44120;SDS011;29783;52.504;13.478;2022-10-22T05:16:11;29.80;;;20.38;;
44120;SDS011;29783;52.504;13.478;2022-10-22T05:18:37;33.47;;;19.63;;
44120;SDS011;29783;52.504;13.478;2022-10-22T05:21:11;26.05;;;19.92;;
44120;SDS011;29783;52.504;13.478;2022-10-22T05:26:05;28.15;;;20.48;;
44120;SDS011;29783;52.504;13.478;2022-10-22T05:28:32;32.03;;;21.20;;
44120;SDS011;29783;52.504;13.478;2022-10-22T05:30:59;30.33;;;21.50;;
44120;SDS011;29783;52.504;13.478;2022-10-22T05:33:26;30.40;;;21.38;;
44120;SDS011;29783;52.504;13.478;2022-10-22T05:35:52;29.33;;;23.10;;
44120;SDS011;29783;52.504;13.478;2022-10-22T05:38:18;28.02;;;21.30;;
44120;SDS011;29783;52.504;13.478;2022-10-22T05:40:44;29.70;;;22.23;;
44120;SDS011;29783;52.504;13.478;2022-10-22T05:43:10;30.35;;;20.83;;
44120;SDS011;29783;52.504;13.478;2022-10-22T05:45:40;26.13;;;21.70;;
44120;SDS011;29783;52.504;13.478;2022-10-22T05:48:06;27.40;;;20.92;;
44120;SDS011;29783;52.504;13.478;2022-10-22T05:50:37;27.80;;;19.60;;
44120;SDS011;29783;52.504;13.478;2022-10-22T05:53:03;34.65;;;21.70;;
44120;SDS011;29783;52.504;13.478;2022-10-22T05:55:30;28.80;;;19.90;;
44120;SDS011;29783;52.504;13.478;2022-10-22T05:58:01;25.63;;;19.95;;
44120;SDS011;29783;52.504;13.478;2022-10-22T06:00:29;29.70;;;20.77;;
44120;SDS011;29783;52.504;13.478;2022-10-22T06:02:55;30.80;;;20.88;;
44120;SDS011;29783;52.504;13.478;2022-10-22T06:05:20;31.42;;;21.98;;
44120;SDS011;29783;52.504;13.478;2022-10-22T06:07:46;31.85;;;22.27;;
44120;SDS011;29783;52.504;13.478;2022-10-22T06:10:16;35.25;;;22.45;;
44120;SDS011;29783;52.504;13.478;2022-10-22T06:12:45;40.40;;;23.17;;
44120;SDS011;29783;52.504;13.478;2022-10-22T06:15:12;32.20;;;22.85;;
44120;SDS011;29783;52.504;13.478;2022-10-22T06:17:40;28.00;;;21.95;;
44120;SDS011;29783;52.504;13.478;2022-10-22T06:20:08;32.08;;;22.77;;
44120;SDS011;29783;52.504;13.478;2022-10-22T06:22:34;35.83;;;21.77;;
44120;SDS011;29783;52.504;13.478;2022-10-22T06:25:00;31.25;;;22.88;;
44120;SDS011;29783;52.504;13.478;2022-10-22T06:27:26;28.95;;;22.35;;
44120;SDS011;29783;52.504;13.478;2022-10-22T06:29:52;32.20;;;22.83;;
44120;SDS011;29783;52.504;13.478;2022-10-22T06:32:17;34.55;;;22.10;;
44120;SDS011;29783;52.504;13.478;2022-10-22T06:34:43;33.78;;;21.65;;
44120;SDS011;29783;52.504;13.478;2022-10-22T06:37:10;32.30;;;23.55;;
44120;SDS011;29783;52.504;13.478;2022-10-22T06:39:37;67.85;;;42.08;;
44120;SDS011;29783;52.504;13.478;2022-10-22T06:42:03;37.17;;;26.63;;
44120;SDS011;29783;52.504;13.478;2022-10-22T06:44:29;38.20;;;26.05;;
44120;SDS011;29783;52.504;13.478;2022-10-22T06:46:55;33.28;;;22.90;;
44120;SDS011;29783;52.504;13.478;2022-10-22T06:49:21;34.83;;;23.55;;
44120;SDS011;29783;52.504;13.478;2022-10-22T06:51:50;30.50;;;23.30;;
44120;SDS011;29783;52.504;13.478;2022-10-22T06:54:16;32.28;;;23.15;;
44120;SDS011;29783;52.504;13.478;2022-10-22T06:56:42;30.98;;;23.38;;
44120;SDS011;29783;52.504;13.478;2022-10-22T06:59:08;27.83;;;22.08;;
44120;SDS011;29783;52.504;13.478;2022-10-22T07:01:35;28.25;;;20.42;;
44120;SDS011;29783;52.504;13.478;2022-10-22T07:04:01;25.77;;;20.02;;
44120;SDS011;29783;52.504;13.478;2022-10-22T07:06:28;31.65;;;19.70;;
44120;SDS011;29783;52.504;13.478;2022-10-22T07:08:55;24.92;;;19.00;;
44120;SDS011;29783;52.504;13.478;2022-10-22T07:11:26;25.50;;;17.55;;
44120;SDS011;29783;52.504;13.478;2022-10-22T07:13:53;21.48;;;16.92;;
44120;SDS011;29783;52.504;13.478;2022-10-22T07:16:21;22.10;;;15.93;;
44120;SDS011;29783;52.504;13.478;2022-10-22T07:18:47;27.00;;;18.27;;
44120;SDS011;29783;52.504;13.478;2022-10-22T07:21:14;23.45;;;17.10;;
44120;SDS011;29783;52.504;13.478;2022-10-22T07:23:41;21.40;;;16.27;;
44120;SDS011;29783;52.504;13.478;2022-10-22T07:26:08;19.85;;;15.27;;
44120;SDS011;29783;52.504;13.478;2022-10-22T07:28:36;20.27;;;15.25;;
44120;SDS011;29783;52.504;13.478;2022-10-22T07:31:05;19.67;;;14.55;;
44120;SDS011;29783;52.504;13.478;2022-10-22T07:33:32;16.58;;;14.68;;
44120;SDS011;29783;52.504;13.478;2022-10-22T07:35:58;16.90;;;14.10;;
44120;SDS011;29783;52.504;13.478;2022-10-22T07:38:25;16.95;;;12.70;;
44120;SDS011;29783;52.504;13.478;2022-10-22T07:40:52;16.38;;;13.55;;
44120;SDS011;29783;52.504;13.478;2022-10-22T07:43:18;19.15;;;13.80;;
44120;SDS011;29783;52.504;13.478;2022-10-22T07:45:44;18.02;;;13.00;;
44120;SDS011;29783;52.504;13.478;2022-10-22T07:48:09;15.30;;;12.25;;
44120;SDS011;29783;52.504;13.478;2022-10-22T07:50:35;17.15;;;12.25;;
44120;SDS011;29783;52.504;13.478;2022-10-22T07:53:01;16.15;;;11.07;;
44120;SDS011;29783;52.504;13.478;2022-10-22T07:55:27;16.45;;;12.15;;
44120;SDS011;29783;52.504;13.478;2022-10-22T07:57:53;14.20;;;11.43;;
44120;SDS011;29783;52.504;13.478;2022-10-22T08:00:19;18.13;;;12.25;;
44120;SDS011;29783;52.504;13.478;2022-10-22T08:02:45;19.70;;;12.95;;
44120;SDS011;29783;52.504;13.478;2022-10-22T08:05:11;19.65;;;13.13;;
44120;SDS011;29783;52.504;13.478;2022-10-22T08:07:40;17.80;;;11.85;;
44120;SDS011;29783;52.504;13.478;2022-10-22T08:10:07;13.90;;;11.60;;
44120;SDS011;29783;52.504;13.478;2022-10-22T08:12:34;14.20;;;12.27;;
44120;SDS011;29783;52.504;13.478;2022-10-22T08:15:01;18.02;;;11.13;;
44120;SDS011;29783;52.504;13.478;2022-10-22T08:17:27;14.02;;;11.13;;
44120;SDS011;29783;52.504;13.478;2022-10-22T08:19:53;14.95;;;10.23;;
44120;SDS011;29783;52.504;13.478;2022-10-22T08:22:19;16.95;;;10.50;;
44120;SDS011;29783;52.504;13.478;2022-10-22T08:24:45;11.77;;;9.35;;
44120;SDS011;29783;52.504;13.478;2022-10-22T08:27:11;12.80;;;9.77;;
44120;SDS011;29783;52.504;13.478;2022-10-22T08:29:37;19.70;;;9.48;;
44120;SDS011;29783;52.504;13.478;2022-10-22T08:32:03;12.45;;;9.48;;
44120;SDS011;29783;52.504;13.478;2022-10-22T08:34:29;15.85;;;10.13;;
44120;SDS011;29783;52.504;13.478;2022-10-22T08:36:55;13.38;;;10.25;;
44120;SDS011;29783;52.504;13.478;2022-10-22T08:39:21;17.42;;;10.77;;
44120;SDS011;29783;52.504;13.478;2022-10-22T08:41:54;18.45;;;10.05;;
44120;SDS011;29783;52.504;13.478;2022-10-22T08:45:02;15.38;;;10.43;;
44120;SDS011;29783;52.504;13.478;2022-10-22T08:47:49;17.95;;;9.40;;
44120;SDS011;29783;52.504;13.478;2022-10-22T08:50:39;16.67;;;10.50;;
44120;SDS011;29783;52.504;13.478;2022-10-22T08:53:13;12.32;;;9.57;;
44120;SDS011;29783;52.504;13.478;2022-10-22T08:55:43;16.30;;;10.90;;
44120;SDS011;29783;52.504;13.478;2022-10-22T08:58:22;12.73;;;10.25;;
44120;SDS011;29783;52.504;13.478;2022-10-22T09:01:16;12.32;;;9.40;;
44120;SDS011;29783;52.504;13.478;2022-10-22T09:03:57;13.98;;;10.43;;
44120;SDS011;29783;52.504;13.478;2022-10-22T09:06:30;21.35;;;9.98;;
44120;SDS011;29783;52.504;13.478;2022-10-22T09:08:58;12.77;;;9.30;;
44120;SDS011;29783;52.504;13.478;2022-10-22T09:11:27;18.85;;;10.73;;
44120;SDS011;29783;52.504;13.478;2022-10-22T09:13:53;14.07;;;9.63;;
44120;SDS011;29783;52.504;13.478;2022-10-22T09:16:24;14.93;;;10.48;;
44120;SDS011;29783;52.504;13.478;2022-10-22T09:24:01;16.58;;;9.85;;
44120;SDS011;29783;52.504;13.478;2022-10-22T09:26:41;12.20;;;9.63;;
44120;SDS011;29783;52.504;13.478;2022-10-22T09:29:08;15.60;;;9.82;;
44120;SDS011;29783;52.504;13.478;2022-10-22T09:31:42;19.92;;;10.05;;
44120;SDS011;29783;52.504;13.478;2022-10-22T09:34:07;13.77;;;10.05;;
44120;SDS011;29783;52.504;13.478;2022-10-22T09:36:34;10.73;;;9.02;;
44120;SDS011;29783;52.504;13.478;2022-10-22T09:39:02;16.45;;;10.05;;
44120;SDS011;29783;52.504;13.478;2022-10-22T09:41:28;12.68;;;8.85;;
44120;SDS011;29783;52.504;13.478;2022-10-22T09:43:54;17.10;;;9.43;;
44120;SDS011;29783;52.504;13.478;2022-10-22T09:46:21;16.67;;;9.27;;
44120;SDS011;29783;52.504;13.478;2022-10-22T09:48:59;12.93;;;8.57;;
44120;SDS011;29783;52.504;13.478;2022-10-22T09:51:50;17.00;;;10.07;;
44120;SDS011;29783;52.504;13.478;2022-10-22T09:56:47;13.40;;;8.63;;
44120;SDS011;29783;52.504;13.478;2022-10-22T09:59:26;13.95;;;8.38;;
44120;SDS011;29783;52.504;13.478;2022-10-22T10:01:57;10.27;;;8.07;;
44120;SDS011;29783;52.504;13.478;2022-10-22T10:04:26;12.15;;;9.00;;
44120;SDS011;29783;52.504;13.478;2022-10-22T10:06:52;13.13;;;8.20;;
44120;SDS011;29783;52.504;13.478;2022-10-22T10:09:24;13.18;;;8.13;;
44120;SDS011;29783;52.504;13.478;2022-10-22T10:11:54;11.02;;;8.27;;
44120;SDS011;29783;52.504;13.478;2022-10-22T10:20:27;10.23;;;7.97;;
44120;SDS011;29783;52.504;13.478;2022-10-22T10:26:28;11.65;;;9.02;;
44120;SDS011;29783;52.504;13.478;2022-10-22T10:34:03;19.40;;;8.50;;
44120;SDS011;29783;52.504;13.478;2022-10-22T10:42:26;17.17;;;9.70;;
44120;SDS011;29783;52.504;13.478;2022-10-22T10:53:16;18.73;;;8.60;;
44120;SDS011;29783;52.504;13.478;2022-10-22T11:02:01;19.90;;;9.68;;
44120;SDS011;29783;52.504;13.478;2022-10-22T11:07:25;15.20;;;8.73;;
44120;SDS011;29783;52.504;13.478;2022-10-22T11:09:58;18.27;;;8.50;;
44120;SDS011;29783;52.504;13.478;2022-10-22T11:12:35;16.63;;;9.10;;
44120;SDS011;29783;52.504;13.478;2022-10-22T11:17:49;17.63;;;9.23;;
44120;SDS011;29783;52.504;13.478;2022-10-22T11:20:36;19.60;;;10.23;;
44120;SDS011;29783;52.504;13.478;2022-10-22T11:24:17;12.18;;;9.60;;
44120;SDS011;29783;52.504;13.478;2022-10-22T11:26:28;20.08;;;11.85;;
44120;SDS011;29783;52.504;13.478;2022-10-22T11:29:02;24.20;;;13.35;;
44120;SDS011;29783;52.504;13.478;2022-10-22T11:31:31;21.20;;;12.05;;
44120;SDS011;29783;52.504;13.478;2022-10-22T11:34:05;14.95;;;10.80;;
44120;SDS011;29783;52.504;13.478;2022-10-22T11:36:39;24.30;;;11.98;;
44120;SDS011;29783;52.504;13.478;2022-10-22T11:39:16;20.67;;;11.88;;
44120;SDS011;29783;52.504;13.478;2022-10-22T11:41:56;19.33;;;12.02;;
44120;SDS011;29783;52.504;13.478;2022-10-22T11:44:23;22.63;;;12.20;;
44120;SDS011;29783;52.504;13.478;2022-10-22T11:47:07;14.70;;;11.57;;
44120;SDS011;29783;52.504;13.478;2022-10-22T11:49:54;18.83;;;12.65;;
44120;SDS011;29783;52.504;13.478;2022-10-22T11:52:26;18.92;;;12.35;;
44120;SDS011;29783;52.504;13.478;2022-10-22T11:55:26;13.65;;;10.13;;
44120;SDS011;29783;52.504;13.478;2022-10-22T11:57:58;19.85;;;10.95;;
44120;SDS011;29783;52.504;13.478;2022-10-22T12:00:33;19.25;;;11.40;;
44120;SDS011;29783;52.504;13.478;2022-10-22T12:03:17;16.52;;;11.23;;
44120;SDS011;29783;52.504;13.478;2022-10-22T12:06:04;16.38;;;10.52;;
44120;SDS011;29783;52.504;13.478;2022-10-22T12:08:37;20.10;;;10.20;;
44120;SDS011;29783;52.504;13.478;2022-10-22T12:13:50;17.02;;;9.02;;
44120;SDS011;29783;52.504;13.478;2022-10-22T12:19:30;15.55;;;8.95;;
44120;SDS011;29783;52.504;13.478;2022-10-22T12:22:06;16.02;;;8.38;;
44120;SDS011;29783;52.504;13.478;2022-10-22T12:24:37;12.55;;;7.60;;
44120;SDS011;29783;52.504;13.478;2022-10-22T12:30:09;11.82;;;6.57;;
44120;SDS011;29783;52.504;13.478;2022-10-22T12:32:46;8.60;;;6.35;;
44120;SDS011;29783;52.504;13.478;2022-10-22T12:35:16;11.10;;;6.18;;
44120;SDS011;29783;52.504;13.478;2022-10-22T12:37:44;12.50;;;5.55;;
44120;SDS011;29783;52.504;13.478;2022-10-22T12:43:13;10.25;;;5.70;;
44120;SDS011;29783;52.504;13.478;2022-10-22T12:45:45;12.50;;;5.43;;
44120;SDS011;29783;52.504;13.478;2022-10-22T12:48:20;10.73;;;4.90;;
44120;SDS011;29783;52.504;13.478;2022-10-22T12:50:59;14.18;;;4.85;;
44120;SDS011;29783;52.504;13.478;2022-10-22T12:53:27;11.65;;;4.43;;
44120;SDS011;29783;52.504;13.478;2022-10-22T12:55:58;8.32;;;3.97;;
44120;SDS011;29783;52.504;13.478;2022-10-22T12:58:32;12.02;;;4.45;;
44120;SDS011;29783;52.504;13.478;2022-10-22T13:01:08;9.30;;;3.70;;
44120;SDS011;29783;52.504;13.478;2022-10-22T13:03:39;8.40;;;3.20;;
44120;SDS011;29783;52.504;13.478;2022-10-22T13:06:13;7.13;;;3.38;;
44120;SDS011;29783;52.504;13.478;2022-10-22T13:08:42;6.00;;;2.67;;
44120;SDS011;29783;52.504;13.478;2022-10-22T13:23:17;11.68;;;2.17;;
44120;SDS011;29783;52.504;13.478;2022-10-22T13:25:54;11.15;;;2.13;;
44120;SDS011;29783;52.504;13.478;2022-10-22T13:28:23;7.72;;;2.00;;
44120;SDS011;29783;52.504;13.478;2022-10-22T13:30:53;7.03;;;2.13;;
44120;SDS011;29783;52.504;13.478;2022-10-22T13:33:49;10.57;;;2.40;;
44120;SDS011;29783;52.504;13.478;2022-10-22T13:36:17;5.43;;;2.00;;
44120;SDS011;29783;52.504;13.478;2022-10-22T13:38:44;7.88;;;2.13;;
44120;SDS011;29783;52.504;13.478;2022-10-22T13:41:20;8.55;;;1.92;;
44120;SDS011;29783;52.504;13.478;2022-10-22T13:43:51;4.68;;;1.83;;
44120;SDS011;29783;52.504;13.478;2022-10-22T13:46:18;6.65;;;2.10;;
44120;SDS011;29783;52.504;13.478;2022-10-22T13:48:44;10.25;;;1.92;;
44120;SDS011;29783;52.504;13.478;2022-10-22T13:51:12;11.00;;;1.95;;
44120;SDS011;29783;52.504;13.478;2022-10-22T13:53:44;6.18;;;2.17;;
44120;SDS011;29783;52.504;13.478;2022-10-22T13:56:14;7.72;;;2.42;;
44120;SDS011;29783;52.504;13.478;2022-10-22T13:58:41;5.25;;;1.80;;
44120;SDS011;29783;52.504;13.478;2022-10-22T14:01:12;10.88;;;2.75;;
44120;SDS011;29783;52.504;13.478;2022-10-22T14:03:43;7.32;;;2.55;;
44120;SDS011;29783;52.504;13.478;2022-10-22T14:09:31;10.23;;;2.15;;
44120;SDS011;29783;52.504;13.478;2022-10-22T14:11:57;4.55;;;1.80;;
44120;SDS011;29783;52.504;13.478;2022-10-22T14:14:23;6.10;;;2.03;;
44120;SDS011;29783;52.504;13.478;2022-10-22T14:16:48;6.68;;;1.95;;
44120;SDS011;29783;52.504;13.478;2022-10-22T14:19:14;10.00;;;2.03;;
44120;SDS011;29783;52.504;13.478;2022-10-22T14:21:41;7.85;;;2.00;;
44120;SDS011;29783;52.504;13.478;2022-10-22T14:24:08;8.93;;;2.28;;
44120;SDS011;29783;52.504;13.478;2022-10-22T14:26:35;6.38;;;2.10;;
44120;SDS011;29783;52.504;13.478;2022-10-22T14:29:00;8.93;;;2.03;;
44120;SDS011;29783;52.504;13.478;2022-10-22T14:31:27;6.68;;;1.80;;
44120;SDS011;29783;52.504;13.478;2022-10-22T14:33:52;7.50;;;1.95;;
44120;SDS011;29783;52.504;13.478;2022-10-22T14:39:55;7.97;;;1.88;;
44120;SDS011;29783;52.504;13.478;2022-10-22T14:42:25;5.68;;;1.80;;
44120;SDS011;29783;52.504;13.478;2022-10-22T14:44:51;8.27;;;1.95;;
44120;SDS011;29783;52.504;13.478;2022-10-22T14:47:17;9.43;;;2.42;;
44120;SDS011;29783;52.504;13.478;2022-10-22T14:50:04;4.00;;;1.92;;
44120;SDS011;29783;52.504;13.478;2022-10-22T14:52:32;6.63;;;2.00;;
44120;SDS011;29783;52.504;13.478;2022-10-22T14:54:58;6.28;;;2.03;;
44120;SDS011;29783;52.504;13.478;2022-10-22T14:57:24;7.68;;;2.05;;
44120;SDS011;29783;52.504;13.478;2022-10-22T14:59:50;7.53;;;2.22;;
44120;SDS011;29783;52.504;13.478;2022-10-22T15:02:19;10.93;;;2.50;;
44120;SDS011;29783;52.504;13.478;2022-10-22T15:04:45;12.57;;;2.20;;
44120;SDS011;29783;52.504;13.478;2022-10-22T15:07:11;7.53;;;2.28;;
44120;SDS011;29783;52.504;13.478;2022-10-22T15:09:37;16.13;;;2.60;;
44120;SDS011;29783;52.504;13.478;2022-10-22T15:12:03;11.30;;;2.75;;
44120;SDS011;29783;52.504;13.478;2022-10-22T15:14:29;8.18;;;2.50;;
44120;SDS011;29783;52.504;13.478;2022-10-22T15:16:55;12.48;;;2.55;;
44120;SDS011;29783;52.504;13.478;2022-10-22T15:19:24;8.13;;;2.42;;
44120;SDS011;29783;52.504;13.478;2022-10-22T15:21:50;8.95;;;2.55;;
44120;SDS011;29783;52.504;13.478;2022-10-22T15:24:16;6.40;;;2.28;;
44120;SDS011;29783;52.504;13.478;2022-10-22T15:26:42;8.32;;;2.50;;
44120;SDS011;29783;52.504;13.478;2022-10-22T15:29:08;11.65;;;3.28;;
44120;SDS011;29783;52.504;13.478;2022-10-22T15:31:47;11.23;;;3.40;;
44120;SDS011;29783;52.504;13.478;2022-10-22T15:34:24;12.10;;;3.22;;
44120;SDS011;29783;52.504;13.478;2022-10-22T15:36:55;8.02;;;2.80;;
44120;SDS011;29783;52.504;13.478;2022-10-22T15:45:33;14.85;;;3.08;;
44120;SDS011;29783;52.504;13.478;2022-10-22T15:47:59;15.02;;;2.75;;
44120;SDS011;29783;52.504;13.478;2022-10-22T15:50:25;6.00;;;2.65;;
44120;SDS011;29783;52.504;13.478;2022-10-22T15:52:55;9.80;;;2.70;;
44120;SDS011;29783;52.504;13.478;2022-10-22T15:55:24;10.13;;;2.92;;
44120;SDS011;29783;52.504;13.478;2022-10-22T15:57:52;6.72;;;2.90;;
44120;SDS011;29783;52.504;13.478;2022-10-22T16:00:19;11.70;;;2.70;;
44120;SDS011;29783;52.504;13.478;2022-10-22T16:02:46;14.32;;;3.25;;
44120;SDS011;29783;52.504;13.478;2022-10-22T16:05:12;8.57;;;2.88;;
44120;SDS011;29783;52.504;13.478;2022-10-22T16:07:38;11.88;;;3.38;;
44120;SDS011;29783;52.504;13.478;2022-10-22T16:10:07;13.48;;;4.25;;
44120;SDS011;29783;52.504;13.478;2022-10-22T16:12:36;15.88;;;4.28;;
44120;SDS011;29783;52.504;13.478;2022-10-22T16:15:04;18.80;;;5.05;;
44120;SDS011;29783;52.504;13.478;2022-10-22T16:17:31;13.40;;;4.40;;
44120;SDS011;29783;52.504;13.478;2022-10-22T16:19:56;14.80;;;5.80;;
44120;SDS011;29783;52.504;13.478;2022-10-22T16:22:22;10.50;;;4.20;;
44120;SDS011;29783;52.504;13.478;2022-10-22T16:24:48;16.52;;;5.03;;
44120;SDS011;29783;52.504;13.478;2022-10-22T16:27:14;17.63;;;5.50;;